Time;durP1;ratioP1;P1;durP2;ratioP2;P2;SDS_P1;SDS_P2;PMS_P1;PMS_P2;Temp;Humidity;BMP_temperature;BMP_pressure;BME280_temperature;BME280_humidity;BME280_pressure;Samples;Min_cycle;Max_cycle;Signal;HPM_P1;HPM_P2
2023/09/13 00:00:58;;;;;;;12.63;5.93;;;19.50;99.90;;;;;;5045211;28;20438;-76
2023/09/13 00:03:44;;;;;;;7.47;6.13;;;19.50;99.90;;;;;;5034115;28;20521;-76
2023/09/13 00:06:29;;;;;;;8.27;5.63;;;19.50;99.90;;;;;;5033742;28;20451;-76
2023/09/13 00:09:15;;;;;;;8.27;6.13;;;19.40;99.90;;;;;;5032506;28;20425;-76
2023/09/13 00:12:01;;;;;;;6.93;5.70;;;19.30;99.90;;;;;;5024602;28;21111;-75
2023/09/13 00:14:48;;;;;;;6.50;5.60;;;19.20;99.90;;;;;;5034148;28;20478;-76
2023/09/13 00:17:35;;;;;;;7.00;5.03;;;19.20;99.90;;;;;;5042727;28;20970;-76
2023/09/13 00:20:21;;;;;;;7.73;5.17;;;19.10;99.90;;;;;;5031349;28;20617;-76
2023/09/13 00:23:07;;;;;;;7.20;5.50;;;19.10;99.90;;;;;;5038709;28;20527;-76
2023/09/13 00:25:52;;;;;;;8.60;5.80;;;19.00;99.90;;;;;;5039948;28;20462;-76
2023/09/13 00:28:38;;;;;;;9.57;5.20;;;18.90;99.90;;;;;;5040132;28;20442;-75
2023/09/13 00:31:23;;;;;;;8.33;6.60;;;18.70;99.90;;;;;;5031802;28;20621;-76
2023/09/13 00:34:10;;;;;;;8.03;4.67;;;18.70;99.90;;;;;;5039393;28;21060;-76
2023/09/13 00:36:56;;;;;;;10.10;4.90;;;18.80;99.90;;;;;;5048285;28;20430;-76
2023/09/13 00:39:41;;;;;;;6.67;5.37;;;18.90;99.90;;;;;;5032707;28;20528;-76
2023/09/13 00:42:29;;;;;;;8.70;5.20;;;19.00;99.90;;;;;;5037913;28;20553;-76
2023/09/13 00:45:15;;;;;;;10.50;5.87;;;18.90;99.90;;;;;;5033128;28;20424;-75
2023/09/13 00:48:01;;;;;;;8.40;5.50;;;18.90;99.90;;;;;;5028761;28;20458;-76
2023/09/13 00:50:49;;;;;;;6.60;5.53;;;18.70;99.90;;;;;;5033465;28;20458;-76
2023/09/13 00:53:35;;;;;;;8.47;5.40;;;18.60;99.90;;;;;;5035117;28;20455;-75
2023/09/13 00:56:21;;;;;;;7.93;6.10;;;18.60;99.90;;;;;;5039209;28;20405;-76
2023/09/13 00:59:08;;;;;;;6.10;5.30;;;18.70;99.90;;;;;;5037234;28;20584;-76
2023/09/13 01:01:53;;;;;;;8.40;4.83;;;18.70;99.90;;;;;;5028699;28;20467;-76
2023/09/13 01:04:39;;;;;;;8.40;6.00;;;18.80;99.90;;;;;;5040955;28;20532;-76
2023/09/13 01:07:26;;;;;;;8.23;5.30;;;18.80;99.90;;;;;;5018606;28;20429;-76
2023/09/13 01:10:12;;;;;;;11.83;5.13;;;18.80;99.90;;;;;;5033794;28;20843;-76
2023/09/13 01:12:58;;;;;;;6.63;5.77;;;18.80;99.90;;;;;;5027615;28;20451;-76
2023/09/13 01:15:52;;;;;;;6.83;5.50;;;18.80;99.90;;;;;;5024732;28;21064;-76
2023/09/13 01:18:48;;;;;;;7.13;5.70;;;18.70;99.90;;;;;;5028848;28;20811;-76
2023/09/13 01:21:50;;;;;;;7.17;5.97;;;18.50;99.90;;;;;;5037214;28;21017;-76
2023/09/13 01:24:57;;;;;;;7.53;5.50;;;18.40;99.90;;;;;;5040539;28;20480;-76
2023/09/13 01:27:49;;;;;;;13.10;6.37;;;18.50;99.90;;;;;;5027093;28;21115;-76
2023/09/13 01:30:38;;;;;;;8.80;5.27;;;18.40;99.90;;;;;;5023937;28;20444;-75
2023/09/13 01:33:24;;;;;;;12.17;6.67;;;18.40;99.90;;;;;;5030551;28;20936;-76
2023/09/13 01:36:10;;;;;;;7.77;5.93;;;18.40;99.90;;;;;;5023161;28;20447;-76
2023/09/13 01:38:55;;;;;;;9.60;6.30;;;18.30;99.90;;;;;;5024087;28;20449;-76
2023/09/13 01:41:45;;;;;;;9.73;5.93;;;18.30;99.90;;;;;;5023723;28;20616;-76
2023/09/13 01:44:32;;;;;;;12.87;6.07;;;18.30;99.90;;;;;;5021252;28;20873;-76
2023/09/13 01:47:20;;;;;;;8.90;6.03;;;18.30;99.90;;;;;;5020982;28;20931;-76
2023/09/13 01:50:07;;;;;;;10.00;6.60;;;18.20;99.90;;;;;;5014058;28;20477;-76
2023/09/13 01:52:53;;;;;;;8.50;6.20;;;18.20;99.90;;;;;;5028397;28;20414;-76
2023/09/13 01:55:39;;;;;;;7.63;5.93;;;18.20;99.90;;;;;;5034792;28;20454;-76
2023/09/13 01:58:25;;;;;;;11.07;6.50;;;18.20;99.90;;;;;;5028232;28;20421;-76
2023/09/13 02:01:11;;;;;;;8.47;5.83;;;18.20;99.90;;;;;;5027847;28;20491;-76
2023/09/13 02:03:58;;;;;;;8.50;6.10;;;18.10;99.90;;;;;;5025186;28;20468;-76
2023/09/13 02:06:44;;;;;;;7.87;6.37;;;18.10;99.90;;;;;;5029957;28;20995;-76
2023/09/13 02:09:29;;;;;;;8.63;5.93;;;18.10;99.90;;;;;;5037764;28;20521;-76
2023/09/13 02:12:15;;;;;;;8.80;6.60;;;18.20;99.90;;;;;;5032850;28;20580;-76
2023/09/13 02:15:01;;;;;;;8.97;5.90;;;18.30;99.90;;;;;;5025939;28;20982;-76
2023/09/13 02:17:46;;;;;;;6.57;5.73;;;18.30;99.90;;;;;;5022939;28;20587;-76
2023/09/13 02:20:33;;;;;;;7.57;5.63;;;18.30;99.90;;;;;;5020934;28;20506;-76
2023/09/13 02:23:20;;;;;;;6.70;5.97;;;18.40;99.90;;;;;;5029142;28;20457;-76
2023/09/13 02:26:05;;;;;;;8.57;6.10;;;18.50;99.90;;;;;;5032623;28;20474;-76
2023/09/13 02:28:51;;;;;;;7.03;5.50;;;18.50;99.90;;;;;;5026332;28;20417;-76
2023/09/13 02:31:38;;;;;;;9.97;6.30;;;18.40;99.90;;;;;;5022166;28;20570;-76
2023/09/13 02:34:24;;;;;;;10.40;7.20;;;18.40;99.90;;;;;;5022020;28;20503;-76
2023/09/13 02:37:11;;;;;;;9.07;6.07;;;18.40;99.90;;;;;;5028850;28;20764;-76
2023/09/13 02:39:58;;;;;;;10.13;6.93;;;18.30;99.90;;;;;;5029507;28;20529;-76
2023/09/13 02:42:44;;;;;;;8.50;5.70;;;18.30;99.90;;;;;;5056429;22;21011;-75
2023/09/13 02:45:30;;;;;;;10.20;6.20;;;18.20;99.90;;;;;;5041263;28;20529;-75
2023/09/13 02:48:16;;;;;;;7.17;6.10;;;18.20;99.90;;;;;;5041475;28;20539;-75
2023/09/13 02:51:02;;;;;;;10.13;6.77;;;18.30;99.90;;;;;;5041608;28;20841;-75
2023/09/13 02:53:50;;;;;;;10.37;7.13;;;18.40;99.90;;;;;;5042154;28;20560;-75
2023/09/13 02:56:35;;;;;;;10.27;7.17;;;18.40;99.90;;;;;;5039955;28;20424;-75
2023/09/13 02:59:21;;;;;;;10.47;5.70;;;18.40;99.90;;;;;;5040289;28;20429;-75
2023/09/13 03:02:07;;;;;;;9.27;6.17;;;18.50;99.90;;;;;;5040758;28;20514;-76
2023/09/13 03:04:53;;;;;;;9.40;5.90;;;18.50;99.90;;;;;;5040051;28;20420;-75
2023/09/13 03:07:39;;;;;;;5.87;5.27;;;18.60;99.90;;;;;;5038221;28;21036;-75
2023/09/13 03:10:27;;;;;;;10.43;5.73;;;18.50;99.90;;;;;;5037692;28;20447;-75
2023/09/13 03:13:13;;;;;;;7.97;6.07;;;18.40;99.90;;;;;;5038453;28;20436;-75
2023/09/13 03:15:58;;;;;;;6.97;5.17;;;18.40;99.90;;;;;;5036996;28;20965;-75
2023/09/13 03:18:44;;;;;;;7.63;6.07;;;18.40;99.90;;;;;;5040861;28;20536;-75
2023/09/13 03:21:30;;;;;;;8.27;6.17;;;18.40;99.90;;;;;;5040991;28;20442;-75
2023/09/13 03:24:16;;;;;;;7.53;5.40;;;18.40;99.90;;;;;;5042811;28;20457;-75
2023/09/13 03:27:03;;;;;;;8.43;5.90;;;18.40;99.90;;;;;;5041742;28;20501;-75
2023/09/13 03:29:49;;;;;;;7.33;5.83;;;18.40;99.90;;;;;;5041418;28;20443;-75
2023/09/13 03:32:34;;;;;;;8.10;5.90;;;18.40;99.90;;;;;;5040406;28;20512;-75
2023/09/13 03:35:20;;;;;;;8.60;5.87;;;18.40;99.90;;;;;;5038054;28;20482;-75
2023/09/13 03:38:05;;;;;;;8.00;6.33;;;18.40;99.90;;;;;;5035975;28;20484;-75
2023/09/13 03:40:51;;;;;;;6.67;5.87;;;18.50;99.90;;;;;;5043545;28;20457;-75
2023/09/13 03:43:38;;;;;;;7.63;6.03;;;18.50;99.90;;;;;;5037924;28;21101;-75
2023/09/13 03:46:24;;;;;;;13.67;7.20;;;18.60;99.90;;;;;;5040343;28;20581;-75
2023/09/13 03:49:09;;;;;;;10.17;6.93;;;18.60;99.90;;;;;;5037425;28;20517;-75
2023/09/13 03:51:55;;;;;;;7.70;6.63;;;18.60;99.90;;;;;;5036921;28;20988;-75
2023/09/13 03:54:40;;;;;;;10.50;7.20;;;18.70;99.90;;;;;;5043308;28;20597;-75
2023/09/13 03:57:26;;;;;;;7.27;6.40;;;18.70;99.90;;;;;;5039678;28;20851;-75
2023/09/13 04:00:15;;;;;;;12.57;6.97;;;18.70;99.90;;;;;;5037832;28;20500;-75
2023/09/13 04:03:00;;;;;;;9.80;6.80;;;18.80;99.90;;;;;;5040133;28;20478;-75
2023/09/13 04:05:46;;;;;;;7.60;6.73;;;18.80;99.90;;;;;;5042388;28;20505;-75
2023/09/13 04:08:32;;;;;;;10.37;8.00;;;18.80;99.90;;;;;;5037140;28;20899;-75
2023/09/13 04:11:17;;;;;;;11.10;8.00;;;18.80;99.90;;;;;;5041681;28;20417;-75
2023/09/13 04:14:04;;;;;;;9.60;6.50;;;18.80;99.90;;;;;;5037482;28;21024;-75
2023/09/13 04:16:51;;;;;;;8.20;6.90;;;18.80;99.90;;;;;;5038616;28;20627;-75
2023/09/13 04:19:36;;;;;;;8.70;7.23;;;18.90;99.90;;;;;;5039288;28;20453;-75
2023/09/13 04:22:22;;;;;;;8.43;7.63;;;18.80;99.90;;;;;;5041147;28;20448;-75
2023/09/13 04:25:10;;;;;;;8.83;6.13;;;18.70;99.90;;;;;;5035270;28;20901;-75
2023/09/13 04:27:56;;;;;;;8.23;6.30;;;18.70;99.90;;;;;;5040076;28;20455;-75
2023/09/13 04:30:41;;;;;;;8.70;6.50;;;18.70;99.90;;;;;;5044207;28;20438;-75
2023/09/13 04:33:52;;;;;;;12.40;7.10;;;18.70;99.90;;;;;;5039989;28;20470;-75
2023/09/13 04:36:38;;;;;;;10.27;7.60;;;18.60;99.90;;;;;;5046265;28;20446;-75
2023/09/13 04:39:23;;;;;;;9.93;8.17;;;18.60;99.90;;;;;;5045558;28;20463;-75
2023/09/13 04:42:09;;;;;;;9.10;8.10;;;18.50;99.90;;;;;;5043272;28;20992;-75
2023/09/13 04:44:55;;;;;;;12.20;8.40;;;18.60;99.90;;;;;;5041579;28;20609;-75
2023/09/13 04:47:41;;;;;;;9.60;8.20;;;18.60;99.90;;;;;;5036095;28;20984;-75
2023/09/13 04:50:28;;;;;;;8.40;7.37;;;18.60;99.90;;;;;;5041082;28;20997;-75
2023/09/13 04:53:14;;;;;;;8.03;7.23;;;18.60;99.90;;;;;;5041257;28;20437;-75
2023/09/13 04:56:00;;;;;;;7.77;6.97;;;18.60;99.90;;;;;;5038563;28;20923;-75
2023/09/13 04:58:46;;;;;;;10.60;7.57;;;18.60;99.90;;;;;;5043206;28;20474;-75
2023/09/13 05:01:31;;;;;;;14.43;6.90;;;18.70;99.90;;;;;;5038398;28;20416;-75
2023/09/13 05:04:17;;;;;;;8.10;7.00;;;18.60;99.90;;;;;;5036916;28;20957;-75
2023/09/13 05:07:04;;;;;;;11.67;7.97;;;18.70;99.90;;;;;;5037510;28;20886;-75
2023/09/13 05:09:50;;;;;;;11.63;6.80;;;18.60;99.90;;;;;;5040560;28;20973;-75
2023/09/13 05:12:36;;;;;;;6.90;6.20;;;18.50;99.90;;;;;;5042752;28;20558;-75
2023/09/13 05:15:21;;;;;;;11.60;6.80;;;18.60;99.90;;;;;;5041141;28;20448;-75
2023/09/13 05:18:07;;;;;;;10.30;7.53;;;18.50;99.90;;;;;;5042968;28;20449;-75
2023/09/13 05:20:52;;;;;;;10.30;7.23;;;18.40;99.90;;;;;;5041018;28;20520;-75
2023/09/13 05:23:39;;;;;;;7.73;6.80;;;18.40;99.90;;;;;;5036710;28;20550;-75
2023/09/13 05:26:25;;;;;;;9.83;7.80;;;18.50;99.90;;;;;;5043792;28;20462;-75
2023/09/13 05:29:10;;;;;;;7.97;7.20;;;18.50;99.90;;;;;;5042460;28;20860;-75
2023/09/13 05:31:56;;;;;;;9.33;6.90;;;18.50;99.90;;;;;;5031543;28;20419;-75
2023/09/13 05:34:42;;;;;;;8.30;7.37;;;18.50;99.90;;;;;;5041140;28;20469;-75
2023/09/13 05:37:27;;;;;;;9.53;7.23;;;18.60;99.90;;;;;;5039404;28;20531;-75
2023/09/13 05:40:15;;;;;;;7.73;7.03;;;18.50;99.90;;;;;;5046017;28;20492;-76
2023/09/13 05:43:00;;;;;;;10.00;8.00;;;18.50;99.90;;;;;;5045729;28;20478;-75
2023/09/13 05:45:46;;;;;;;9.20;7.07;;;18.50;99.90;;;;;;5040653;28;20812;-75
2023/09/13 05:48:32;;;;;;;8.83;7.30;;;18.60;99.90;;;;;;5044281;28;20440;-74
2023/09/13 05:51:19;;;;;;;8.50;6.87;;;18.70;99.90;;;;;;5041037;28;20475;-75
2023/09/13 05:54:05;;;;;;;10.17;7.40;;;18.70;99.90;;;;;;5039418;28;20547;-75
2023/09/13 05:56:56;;;;;;;8.77;7.87;;;18.80;99.90;;;;;;5040458;28;20514;-75
2023/09/13 05:59:41;;;;;;;7.57;6.70;;;18.70;99.90;;;;;;5049943;28;20558;-75
2023/09/13 06:02:27;;;;;;;9.47;7.73;;;18.70;99.90;;;;;;5044219;28;20470;-75
2023/09/13 06:05:13;;;;;;;8.50;7.70;;;18.70;99.90;;;;;;5045285;28;20953;-75
2023/09/13 06:07:59;;;;;;;7.63;6.83;;;18.70;99.90;;;;;;5047275;28;20823;-75
2023/09/13 06:10:45;;;;;;;13.33;8.50;;;18.80;99.90;;;;;;5040317;28;20507;-75
2023/09/13 06:13:32;;;;;;;9.73;8.03;;;18.80;99.90;;;;;;5049218;28;20545;-75
2023/09/13 06:16:17;;;;;;;9.13;7.50;;;18.90;99.90;;;;;;5045015;28;20493;-75
2023/09/13 06:19:03;;;;;;;9.37;7.50;;;19.10;99.90;;;;;;5049021;28;20608;-75
2023/09/13 06:21:49;;;;;;;8.03;7.10;;;19.20;99.90;;;;;;5048271;28;20506;-75
2023/09/13 06:24:35;;;;;;;9.57;7.63;;;19.30;99.90;;;;;;5041527;28;21105;-75
2023/09/13 06:27:21;;;;;;;9.37;7.80;;;19.40;99.90;;;;;;5047675;28;20468;-75
2023/09/13 06:30:09;;;;;;;8.70;7.10;;;19.40;99.90;;;;;;5041037;28;20454;-75
2023/09/13 06:32:54;;;;;;;7.67;6.87;;;19.50;99.90;;;;;;5044083;28;20482;-75
2023/09/13 06:35:40;;;;;;;13.60;7.87;;;19.50;99.90;;;;;;5043520;28;20918;-75
2023/09/13 06:38:26;;;;;;;8.73;7.00;;;19.40;99.90;;;;;;5038574;28;20445;-75
2023/09/13 06:41:11;;;;;;;9.60;7.30;;;19.50;99.90;;;;;;5041332;28;20418;-75
2023/09/13 06:43:57;;;;;;;15.73;8.17;;;19.50;99.90;;;;;;5043422;28;20534;-74
2023/09/13 06:46:44;;;;;;;12.23;8.03;;;19.60;99.90;;;;;;5043480;28;20528;-74
2023/09/13 06:49:29;;;;;;;10.47;8.07;;;19.70;99.90;;;;;;5039881;28;20490;-74
2023/09/13 06:52:15;;;;;;;9.63;7.00;;;19.70;99.90;;;;;;5039483;28;20545;-74
2023/09/13 06:55:01;;;;;;;12.13;7.07;;;19.80;99.90;;;;;;5043205;28;20578;-74
2023/09/13 06:57:48;;;;;;;10.17;7.93;;;19.90;99.90;;;;;;5042160;28;20972;-74
2023/09/13 07:00:34;;;;;;;10.90;8.77;;;19.90;99.90;;;;;;5033792;28;20444;-74
2023/09/13 07:03:20;;;;;;;8.37;7.53;;;19.90;99.90;;;;;;5039639;28;20506;-74
2023/09/13 07:06:06;;;;;;;9.47;7.80;;;20.00;99.90;;;;;;5045206;28;21278;-74
2023/09/13 07:08:52;;;;;;;11.10;7.40;;;20.10;99.90;;;;;;5044938;28;20477;-74
2023/09/13 07:11:38;;;;;;;11.30;8.17;;;20.00;99.90;;;;;;5042848;28;20436;-74
2023/09/13 07:14:24;;;;;;;9.20;8.10;;;20.10;99.90;;;;;;5042180;28;20505;-74
2023/09/13 07:17:09;;;;;;;9.50;7.80;;;20.20;99.90;;;;;;5046078;28;20410;-74
2023/09/13 07:19:56;;;;;;;13.53;8.77;;;20.20;99.90;;;;;;5041611;28;20440;-74
2023/09/13 07:22:42;;;;;;;9.47;8.50;;;20.30;99.90;;;;;;5045194;28;20468;-74
2023/09/13 07:25:28;;;;;;;13.40;9.33;;;20.40;99.90;;;;;;5040589;28;20457;-74
2023/09/13 07:28:13;;;;;;;12.93;8.23;;;20.50;99.90;;;;;;5041440;28;20444;-74
2023/09/13 07:30:59;;;;;;;8.83;7.40;;;20.60;99.90;;;;;;5039603;28;20487;-74
2023/09/13 07:33:45;;;;;;;11.83;9.13;;;20.70;99.90;;;;;;5045452;28;20928;-74
2023/09/13 07:36:32;;;;;;;10.20;7.63;;;20.80;99.90;;;;;;5043109;28;20471;-74
2023/09/13 07:39:18;;;;;;;11.20;7.30;;;20.70;99.90;;;;;;5047569;28;20455;-74
2023/09/13 07:42:04;;;;;;;11.60;8.37;;;20.70;99.90;;;;;;5040437;28;21951;-74
2023/09/13 07:44:49;;;;;;;8.80;7.00;;;20.70;99.90;;;;;;5043899;28;20436;-74
2023/09/13 07:47:35;;;;;;;9.20;8.30;;;20.60;99.90;;;;;;5040142;28;21076;-74
2023/09/13 07:50:32;;;;;;;12.07;7.57;;;20.60;99.90;;;;;;5043643;28;20981;-74
2023/09/13 07:53:19;;;;;;;10.40;8.60;;;20.60;99.90;;;;;;5037209;28;20456;-74
2023/09/13 07:56:04;;;;;;;10.93;8.90;;;20.40;99.90;;;;;;5037433;28;20475;-74
2023/09/13 07:58:50;;;;;;;13.73;8.77;;;20.40;99.90;;;;;;5043129;28;22031;-74
2023/09/13 08:01:37;;;;;;;9.40;8.40;;;20.40;99.90;;;;;;5044894;28;20477;-74
2023/09/13 08:04:22;;;;;;;7.67;6.87;;;20.30;99.90;;;;;;5044499;28;21086;-75
2023/09/13 08:07:09;;;;;;;9.30;7.40;;;20.40;99.90;;;;;;5044940;28;20814;-74
2023/09/13 08:09:56;;;;;;;14.03;7.97;;;20.40;99.90;;;;;;5039583;28;20534;-76
2023/09/13 08:12:42;;;;;;;11.23;7.50;;;20.50;99.90;;;;;;5046625;28;20511;-76
2023/09/13 08:15:28;;;;;;;12.63;9.27;;;20.60;99.90;;;;;;5045632;28;20475;-75
2023/09/13 08:18:13;;;;;;;14.97;9.17;;;20.60;99.90;;;;;;5042913;28;21009;-74
2023/09/13 08:20:59;;;;;;;9.80;8.70;;;20.60;99.90;;;;;;5041587;28;20459;-75
2023/09/13 08:23:45;;;;;;;11.90;8.00;;;20.60;99.90;;;;;;5043533;28;20978;-75
2023/09/13 08:26:32;;;;;;;11.37;8.00;;;20.50;99.90;;;;;;5040286;28;20444;-75
2023/09/13 08:29:17;;;;;;;12.17;8.50;;;20.60;99.90;;;;;;5046199;28;20455;-75
2023/09/13 08:32:03;;;;;;;12.33;8.07;;;20.70;99.90;;;;;;5042442;28;20549;-75
2023/09/13 08:34:49;;;;;;;12.07;8.40;;;20.70;99.90;;;;;;5041544;28;20471;-75
2023/09/13 08:37:35;;;;;;;13.00;8.70;;;20.80;99.90;;;;;;5039434;28;21199;-74
2023/09/13 08:40:20;;;;;;;9.23;8.30;;;20.70;99.90;;;;;;5043597;28;20970;-75
2023/09/13 08:43:09;;;;;;;14.30;8.47;;;20.70;99.90;;;;;;5057477;22;20511;-70
2023/09/13 08:45:55;;;;;;;8.93;7.83;;;20.80;99.90;;;;;;5041459;28;21149;-70
2023/09/13 08:48:43;;;;;;;12.67;8.53;;;21.00;99.90;;;;;;5040987;28;20458;-70
2023/09/13 08:51:30;;;;;;;8.67;7.70;;;21.10;99.90;;;;;;5041125;28;20447;-70
2023/09/13 08:54:16;;;;;;;9.97;8.33;;;21.20;99.90;;;;;;5045288;28;20471;-70
2023/09/13 08:57:04;;;;;;;12.80;8.83;;;21.10;99.90;;;;;;5043416;28;20442;-70
2023/09/13 08:59:51;;;;;;;14.27;7.90;;;21.00;99.90;;;;;;5038202;28;20514;-70
2023/09/13 09:02:38;;;;;;;10.97;8.97;;;21.00;99.90;;;;;;5038634;28;20467;-72
2023/09/13 09:05:27;;;;;;;11.27;7.70;;;20.90;99.90;;;;;;5039005;28;20515;-72
2023/09/13 09:08:13;;;;;;;13.33;7.97;;;21.00;99.90;;;;;;5041739;28;20447;-70
2023/09/13 09:11:00;;;;;;;9.60;7.40;;;21.00;99.90;;;;;;5038166;28;20459;-70
2023/09/13 09:13:47;;;;;;;9.73;7.87;;;21.00;99.90;;;;;;5044203;28;20509;-70
2023/09/13 09:16:35;;;;;;;10.50;7.20;;;21.20;99.90;;;;;;5043356;28;20486;-70
2023/09/13 09:19:21;;;;;;;9.30;8.30;;;21.20;99.90;;;;;;5047902;28;20614;-70
2023/09/13 09:22:09;;;;;;;12.67;7.00;;;21.30;99.90;;;;;;5037343;28;20982;-70
2023/09/13 09:24:54;;;;;;;8.73;7.20;;;21.20;99.90;;;;;;5046055;28;20811;-70
2023/09/13 09:27:40;;;;;;;10.60;6.30;;;21.10;99.90;;;;;;5043874;28;20459;-70
2023/09/13 09:30:31;;;;;;;9.67;8.53;;;21.10;99.90;;;;;;5046384;28;20834;-72
2023/09/13 09:33:27;;;;;;;8.20;7.40;;;21.10;99.90;;;;;;5038021;28;20551;-72
2023/09/13 09:36:13;;;;;;;11.47;7.10;;;21.20;99.90;;;;;;5038896;28;20484;-70
2023/09/13 09:39:00;;;;;;;15.73;7.73;;;21.40;99.90;;;;;;5047225;28;20566;-70
2023/09/13 09:41:46;;;;;;;7.90;7.10;;;21.40;99.90;;;;;;5048782;28;20447;-70
2023/09/13 09:44:31;;;;;;;10.47;6.87;;;21.50;99.90;;;;;;5046230;28;20474;-70
2023/09/13 09:47:18;;;;;;;10.10;7.77;;;21.60;99.90;;;;;;5044298;28;20431;-70
2023/09/13 09:50:06;;;;;;;8.70;7.27;;;21.70;99.90;;;;;;5047045;28;20538;-70
2023/09/13 09:52:52;;;;;;;9.23;6.90;;;21.90;99.90;;;;;;5037103;28;20464;-71
2023/09/13 09:55:37;;;;;;;9.30;6.30;;;22.10;99.90;;;;;;5039039;28;20824;-70
2023/09/13 09:58:24;;;;;;;15.00;7.20;;;22.10;99.90;;;;;;5041648;28;20451;-70
2023/09/13 10:01:11;;;;;;;8.90;5.93;;;22.20;99.90;;;;;;5042859;28;20448;-70
2023/09/13 10:04:08;;;;;;;10.10;6.77;;;22.10;99.90;;;;;;5038024;28;20449;-70
2023/09/13 10:07:03;;;;;;;19.37;6.60;;;22.00;99.90;;;;;;5047802;28;20438;-70
2023/09/13 10:09:49;;;;;;;10.43;6.57;;;21.80;99.90;;;;;;5041741;28;20440;-70
2023/09/13 10:12:45;;;;;;;7.47;6.70;;;21.70;99.90;;;;;;5039575;28;20468;-70
2023/09/13 10:15:30;;;;;;;8.07;6.40;;;21.70;99.90;;;;;;5035401;28;20485;-70
2023/09/13 10:18:19;;;;;;;8.17;6.43;;;21.70;99.90;;;;;;5039771;28;20955;-70
2023/09/13 10:21:06;;;;;;;7.87;6.10;;;21.70;99.90;;;;;;5041262;28;20416;-70
2023/09/13 10:24:00;;;;;;;8.47;6.30;;;21.70;99.90;;;;;;5040768;28;20449;-71
2023/09/13 10:26:46;;;;;;;7.70;6.07;;;21.80;99.90;;;;;;5046177;28;20440;-70
2023/09/13 10:29:39;;;;;;;12.10;7.77;;;21.80;99.90;;;;;;5034882;28;20429;-70
2023/09/13 10:32:31;;;;;;;10.43;7.13;;;21.80;99.90;;;;;;5032766;28;21034;-70
2023/09/13 10:35:19;;;;;;;9.40;6.80;;;21.80;99.90;;;;;;5041730;28;20558;-70
2023/09/13 10:38:12;;;;;;;9.10;7.30;;;21.90;99.90;;;;;;5045251;28;20448;-70
2023/09/13 10:41:04;;;;;;;9.50;6.70;;;22.20;99.90;;;;;;5041415;28;20942;-70
2023/09/13 10:43:50;;;;;;;17.10;6.47;;;22.30;99.90;;;;;;5044568;28;20538;-71
2023/09/13 10:46:37;;;;;;;11.07;6.80;;;22.40;99.90;;;;;;5041915;28;20429;-70
2023/09/13 10:49:22;;;;;;;13.03;6.23;;;22.60;99.90;;;;;;5049194;28;21021;-70
2023/09/13 10:52:08;;;;;;;7.17;5.60;;;22.60;99.90;;;;;;5040227;28;20473;-71
2023/09/13 10:54:55;;;;;;;12.00;5.53;;;22.60;99.90;;;;;;5034205;28;20930;-70
2023/09/13 10:57:42;;;;;;;8.87;5.87;;;22.60;99.90;;;;;;5047669;28;20444;-70
2023/09/13 11:00:31;;;;;;;5.33;4.83;;;22.50;99.90;;;;;;5046193;28;20423;-70
2023/09/13 11:03:18;;;;;;;6.63;5.00;;;22.60;99.90;;;;;;5035734;28;20954;-70
2023/09/13 11:06:04;;;;;;;10.27;5.90;;;22.70;99.90;;;;;;5037606;28;20428;-70
2023/09/13 11:08:50;;;;;;;5.73;4.73;;;22.80;99.90;;;;;;5043630;28;20429;-70
2023/09/13 11:11:36;;;;;;;8.03;5.53;;;22.90;99.90;;;;;;5042602;28;20444;-70
2023/09/13 11:14:29;;;;;;;7.57;6.10;;;23.10;99.90;;;;;;5041115;28;20452;-70
2023/09/13 11:17:37;;;;;;;7.57;6.10;;;23.30;99.90;;;;;;5041225;28;20614;-70
2023/09/13 11:20:27;;;;;;;6.57;5.70;;;23.40;99.90;;;;;;5037993;28;20458;-70
2023/09/13 11:23:14;;;;;;;10.33;5.90;;;23.60;99.90;;;;;;5045875;28;20534;-70
2023/09/13 11:26:04;;;;;;;7.40;4.80;;;23.70;99.90;;;;;;5043236;28;20447;-70
2023/09/13 11:28:50;;;;;;;11.73;4.73;;;23.80;99.90;;;;;;5038890;28;20558;-70
2023/09/13 11:31:57;;;;;;;5.37;4.27;;;23.70;95.50;;;;;;5049071;28;20441;-70
2023/09/13 11:34:43;;;;;;;6.50;4.53;;;23.60;97.10;;;;;;5046377;28;20457;-70
2023/09/13 11:37:32;;;;;;;7.00;4.13;;;23.60;95.70;;;;;;5049447;28;20478;-70
2023/09/13 11:40:18;;;;;;;7.57;4.10;;;23.50;94.90;;;;;;5042201;28;20444;-70
2023/09/13 11:43:04;;;;;;;7.40;4.17;;;23.20;92.80;;;;;;5045001;28;20481;-70
2023/09/13 11:45:50;;;;;;;5.40;3.87;;;23.10;93.50;;;;;;5045916;28;20441;-70
2023/09/13 11:48:40;;;;;;;8.17;4.97;;;23.10;95.20;;;;;;5045765;28;20466;-71
2023/09/13 11:51:26;;;;;;;5.80;5.00;;;23.10;96.50;;;;;;5043829;28;20450;-70
2023/09/13 11:54:16;;;;;;;5.23;4.10;;;22.90;95.60;;;;;;5038641;28;20468;-70
2023/09/13 11:57:04;;;;;;;5.63;4.80;;;22.70;97.70;;;;;;5039247;28;20787;-70
2023/09/13 11:59:53;;;;;;;8.17;4.10;;;22.50;97.10;;;;;;5039713;28;20436;-70
2023/09/13 12:02:39;;;;;;;8.37;5.77;;;22.40;98.60;;;;;;5043469;28;20478;-70
2023/09/13 12:05:27;;;;;;;6.13;4.90;;;22.40;99.90;;;;;;5042893;28;20526;-70
2023/09/13 12:08:24;;;;;;;5.00;4.50;;;22.30;99.90;;;;;;5040182;28;20454;-70
2023/09/13 12:11:10;;;;;;;7.30;4.80;;;22.30;99.90;;;;;;5035247;28;20453;-70
2023/09/13 12:13:55;;;;;;;6.30;5.10;;;22.40;99.90;;;;;;5037269;28;20499;-70
2023/09/13 12:16:42;;;;;;;8.00;5.00;;;22.40;99.90;;;;;;5034923;28;20800;-70
2023/09/13 12:19:27;;;;;;;7.27;4.37;;;22.30;99.90;;;;;;5035942;28;20890;-70
2023/09/13 12:22:15;;;;;;;10.40;4.60;;;22.30;99.90;;;;;;5044806;28;20446;-70
2023/09/13 12:25:01;;;;;;;6.70;4.70;;;22.20;99.90;;;;;;5038375;28;20543;-70
2023/09/13 12:27:47;;;;;;;7.50;4.47;;;22.10;99.90;;;;;;5041454;28;20447;-71
2023/09/13 12:30:32;;;;;;;6.07;4.40;;;22.10;99.90;;;;;;5038706;28;20463;-70
2023/09/13 12:33:18;;;;;;;6.00;5.20;;;22.10;99.90;;;;;;5039655;28;20485;-70
2023/09/13 12:36:04;;;;;;;6.90;4.50;;;22.20;99.90;;;;;;5039561;28;20478;-70
2023/09/13 12:38:53;;;;;;;7.47;3.73;;;22.30;99.90;;;;;;5043560;28;20880;-70
2023/09/13 12:41:38;;;;;;;4.77;4.07;;;22.30;99.90;;;;;;5042929;28;20891;-70
2023/09/13 12:44:24;;;;;;;7.40;4.53;;;22.40;99.90;;;;;;5037563;28;21056;-70
2023/09/13 12:47:10;;;;;;;6.40;4.90;;;22.40;99.90;;;;;;5037692;28;20980;-70
2023/09/13 12:49:55;;;;;;;12.17;4.60;;;22.30;99.90;;;;;;5042054;28;20458;-70
2023/09/13 12:52:41;;;;;;;4.63;4.00;;;22.10;99.90;;;;;;5039690;28;20496;-70
2023/09/13 12:55:28;;;;;;;6.30;4.30;;;22.10;99.90;;;;;;5039889;28;20434;-70
2023/09/13 12:58:14;;;;;;;5.03;4.07;;;22.10;99.90;;;;;;5032794;28;20564;-70
2023/09/13 13:01:03;;;;;;;7.77;4.90;;;22.10;99.90;;;;;;5040811;28;20811;-70
2023/09/13 13:03:59;;;;;;;7.20;4.40;;;22.10;99.90;;;;;;5039176;28;20463;-70
2023/09/13 13:06:56;;;;;;;6.03;4.83;;;22.20;99.90;;;;;;5038729;28;20583;-70
2023/09/13 13:09:41;;;;;;;6.53;4.07;;;22.10;99.90;;;;;;5041315;28;20611;-70
2023/09/13 13:12:29;;;;;;;6.90;5.30;;;22.10;99.90;;;;;;5043331;28;20459;-70
2023/09/13 13:15:14;;;;;;;5.33;4.00;;;22.20;99.90;;;;;;5040851;28;20435;-70
2023/09/13 13:18:01;;;;;;;6.27;4.23;;;22.20;99.90;;;;;;5042728;28;20460;-71
2023/09/13 13:20:47;;;;;;;6.20;3.90;;;22.30;99.90;;;;;;5042875;28;21277;-70
2023/09/13 13:23:34;;;;;;;6.50;4.50;;;22.40;99.90;;;;;;5042903;28;21106;-71
2023/09/13 13:26:21;;;;;;;4.67;3.93;;;22.60;99.20;;;;;;5041232;28;20443;-71
2023/09/13 13:29:10;;;;;;;4.83;3.67;;;22.80;98.80;;;;;;5039242;28;20532;-70
2023/09/13 13:31:55;;;;;;;7.13;5.33;;;22.80;99.30;;;;;;5035966;28;20535;-70
2023/09/13 13:34:41;;;;;;;6.50;5.10;;;22.80;97.90;;;;;;5038881;28;20444;-70
2023/09/13 13:37:27;;;;;;;8.23;4.27;;;22.80;96.20;;;;;;5037745;28;20666;-70
2023/09/13 13:40:12;;;;;;;6.73;3.73;;;22.80;95.80;;;;;;5036228;28;20448;-70
2023/09/13 13:42:58;;;;;;;9.83;4.23;;;22.70;95.40;;;;;;5042327;28;20614;-70
2023/09/13 13:45:45;;;;;;;8.17;4.20;;;22.60;93.20;;;;;;5033015;28;20444;-70
2023/09/13 13:48:32;;;;;;;5.93;4.33;;;22.60;95.20;;;;;;5035821;28;20515;-70
2023/09/13 13:51:18;;;;;;;6.37;4.43;;;22.60;94.80;;;;;;5036676;28;20442;-69
2023/09/13 13:54:04;;;;;;;5.93;4.77;;;22.50;94.60;;;;;;5037556;28;20463;-69
2023/09/13 13:56:50;;;;;;;4.93;4.10;;;22.50;95.40;;;;;;5037841;28;20494;-69
2023/09/13 13:59:35;;;;;;;5.80;4.63;;;22.80;96.60;;;;;;5035635;28;20592;-69
2023/09/13 14:02:22;;;;;;;8.37;3.90;;;23.10;94.90;;;;;;5040542;28;20459;-69
2023/09/13 14:05:09;;;;;;;5.53;4.10;;;23.20;92.30;;;;;;5045102;28;20974;-69
2023/09/13 14:07:55;;;;;;;5.83;3.63;;;23.20;93.40;;;;;;5042574;28;20451;-69
2023/09/13 14:10:40;;;;;;;4.37;3.53;;;23.20;93.00;;;;;;5041141;28;20502;-69
2023/09/13 14:13:27;;;;;;;6.90;3.83;;;23.10;92.80;;;;;;5041727;28;20966;-69
2023/09/13 14:16:13;;;;;;;5.10;3.97;;;23.20;92.40;;;;;;5040430;28;20453;-69
2023/09/13 14:19:00;;;;;;;6.10;3.90;;;23.50;92.00;;;;;;5043909;28;20444;-69
2023/09/13 14:21:46;;;;;;;6.63;3.70;;;23.60;90.40;;;;;;5044481;28;20427;-69
2023/09/13 14:24:31;;;;;;;5.53;3.20;;;23.90;91.40;;;;;;5043095;28;20955;-69